createdAt,value
2022-08-21T00:04:07.447Z,196.93
2022-08-21T00:29:11.760Z,182.68
2022-08-21T00:54:18.912Z,183.50
2022-08-21T01:19:23.666Z,184.93
2022-08-21T01:44:28.966Z,178.70
2022-08-21T02:09:33.310Z,181.52
2022-08-21T02:34:37.727Z,178.27
2022-08-21T02:59:42.446Z,181.85
2022-08-21T03:24:50.239Z,174.18
2022-08-21T03:49:55.186Z,182.30
2022-08-21T04:14:59.527Z,175.70
2022-08-21T04:40:04.443Z,178.32
2022-08-21T05:05:09.843Z,183.32
2022-08-21T05:30:14.770Z,178.27
2022-08-21T05:55:19.194Z,185.68
2022-08-21T06:20:24.397Z,177.70
2022-08-21T06:45:29.970Z,179.45
2022-08-21T07:10:36.761Z,181.88
2022-08-21T07:35:41.078Z,200.13
2022-08-21T08:00:45.241Z,183.80
2022-08-21T08:25:49.700Z,192.25
2022-08-21T08:50:56.284Z,211.53
2022-08-21T09:16:04.565Z,207.48
2022-08-21T09:41:10.884Z,223.77
2022-08-21T10:06:23.177Z,216.88
2022-08-21T10:31:30.259Z,195.18
2022-08-21T10:56:36.589Z,228.43
2022-08-21T11:21:43.902Z,225.70
2022-08-21T11:46:51.565Z,241.40
2022-08-21T12:12:02.766Z,225.80
2022-08-21T12:37:13.481Z,200.30
2022-08-21T13:02:20.892Z,182.98
2022-08-21T13:27:27.892Z,187.70
2022-08-21T13:52:32.425Z,187.25
2022-08-21T14:17:39.105Z,179.20
2022-08-21T14:42:43.607Z,205.77
2022-08-21T15:07:47.727Z,205.68
2022-08-21T15:32:52.483Z,204.70
2022-08-21T15:57:59.230Z,200.57
2022-08-21T16:23:04.929Z,206.05
2022-08-21T16:48:09.811Z,243.00
2022-08-21T17:13:14.185Z,201.05
2022-08-21T17:38:18.283Z,221.45
2022-08-21T18:03:24.206Z,192.75
2022-08-21T18:28:28.838Z,213.15
2022-08-21T18:53:32.967Z,204.27
2022-08-21T19:18:41.840Z,196.30
2022-08-21T19:43:50.355Z,210.07
2022-08-21T20:08:55.134Z,187.40
2022-08-21T20:33:59.660Z,221.40
2022-08-21T20:59:08.758Z,208.75
2022-08-21T21:24:20.584Z,196.40
2022-08-21T21:49:37.294Z,204.93
2022-08-21T22:14:43.874Z,182.07
2022-08-21T22:39:55.450Z,178.20
2022-08-21T23:05:03.469Z,179.15
2022-08-21T23:30:09.586Z,185.57
2022-08-21T23:55:36.082Z,178.77
